Time;durP1;ratioP1;P1;durP2;ratioP2;P2;SDS_P1;SDS_P2;PMS_P1;PMS_P2;Temp;Humidity;BMP_temperature;BMP_pressure;BME280_temperature;BME280_humidity;BME280_pressure;Samples;Min_cycle;Max_cycle;Signal;HPM_P1;HPM_P2
2023/12/30 00:00:56;;;;;;;7.23;4.10;;;7.00;99.90;;;;;;5015492;28;20963;-87
2023/12/30 00:03:24;;;;;;;7.57;3.40;;;7.00;99.90;;;;;;5015374;28;20550;-87
2023/12/30 00:05:52;;;;;;;5.33;3.07;;;7.00;99.90;;;;;;5015734;28;20517;-87
2023/12/30 00:08:21;;;;;;;6.50;3.50;;;7.00;99.90;;;;;;5016220;28;20986;-87
2023/12/30 00:10:49;;;;;;;5.13;3.20;;;7.00;99.90;;;;;;5017726;28;20549;-87
2023/12/30 00:13:17;;;;;;;5.80;2.83;;;7.00;99.90;;;;;;5016819;28;20539;-87
2023/12/30 00:15:47;;;;;;;3.50;2.53;;;7.00;99.90;;;;;;5016664;28;20818;-87
2023/12/30 00:18:16;;;;;;;6.40;3.03;;;7.00;99.90;;;;;;5017005;28;20478;-87
2023/12/30 00:20:45;;;;;;;6.63;3.80;;;7.00;99.90;;;;;;5016638;28;20832;-87
2023/12/30 00:23:14;;;;;;;5.17;2.73;;;7.00;99.90;;;;;;5016543;28;20472;-87
2023/12/30 00:25:42;;;;;;;4.13;3.10;;;7.00;99.90;;;;;;5016497;28;20527;-87
2023/12/30 00:28:10;;;;;;;4.27;3.27;;;7.00;99.90;;;;;;5017838;28;20451;-87
2023/12/30 00:30:39;;;;;;;6.23;4.57;;;7.00;99.90;;;;;;5017199;28;20802;-87
2023/12/30 00:33:08;;;;;;;4.70;3.50;;;7.00;99.90;;;;;;5016481;28;20478;-87
2023/12/30 00:35:37;;;;;;;5.53;4.90;;;7.00;99.90;;;;;;5016441;28;21011;-87
2023/12/30 00:38:05;;;;;;;6.63;6.13;;;7.00;99.90;;;;;;5016685;28;20454;-87
2023/12/30 00:40:34;;;;;;;6.63;5.80;;;7.00;99.90;;;;;;5016697;28;20457;-87
2023/12/30 00:43:02;;;;;;;7.87;4.97;;;7.10;99.90;;;;;;5016196;28;20987;-87
2023/12/30 00:45:31;;;;;;;6.60;4.20;;;7.00;99.90;;;;;;5015631;28;20495;-87
2023/12/30 00:47:59;;;;;;;8.03;4.40;;;7.10;99.90;;;;;;5015494;28;20502;-87
2023/12/30 00:50:30;;;;;;;5.30;3.43;;;7.10;99.90;;;;;;5015501;28;20864;-87
2023/12/30 00:52:58;;;;;;;5.93;3.73;;;7.10;99.90;;;;;;5015524;28;20482;-87
2023/12/30 00:55:27;;;;;;;8.90;3.73;;;7.10;99.90;;;;;;5015150;28;20452;-87
2023/12/30 00:57:55;;;;;;;6.30;4.20;;;7.10;99.90;;;;;;5015159;28;20467;-87
2023/12/30 01:00:23;;;;;;;4.70;3.70;;;7.10;99.90;;;;;;5015151;28;20481;-87
2023/12/30 01:02:52;;;;;;;5.60;3.97;;;7.10;99.90;;;;;;5014537;28;20480;-87
2023/12/30 01:05:21;;;;;;;6.10;4.30;;;7.10;99.90;;;;;;5014801;28;20534;-87
2023/12/30 01:07:50;;;;;;;5.50;4.47;;;7.10;99.90;;;;;;5014929;28;20452;-87
2023/12/30 01:10:19;;;;;;;7.20;4.40;;;7.10;99.90;;;;;;5021938;28;20450;-88
2023/12/30 01:12:47;;;;;;;5.70;4.10;;;7.10;99.90;;;;;;5018622;28;21008;-88
2023/12/30 01:15:16;;;;;;;7.40;4.30;;;7.10;99.90;;;;;;5015365;28;20454;-88
2023/12/30 01:17:44;;;;;;;5.87;3.40;;;7.10;99.90;;;;;;5015145;28;20462;-87
2023/12/30 01:20:13;;;;;;;5.23;3.50;;;7.10;99.90;;;;;;5018393;28;20504;-88
2023/12/30 01:22:41;;;;;;;5.60;2.97;;;7.10;99.90;;;;;;5018216;28;20469;-87
2023/12/30 01:25:11;;;;;;;6.53;3.53;;;7.10;99.90;;;;;;5017883;28;20451;-87
2023/12/30 01:27:39;;;;;;;6.60;2.70;;;7.20;99.90;;;;;;5021399;28;20490;-88
2023/12/30 01:30:09;;;;;;;6.23;3.57;;;7.20;99.90;;;;;;5023248;28;20438;-87
2023/12/30 01:32:37;;;;;;;5.33;2.77;;;7.20;99.90;;;;;;5034915;28;20605;-87
2023/12/30 01:35:06;;;;;;;3.43;2.60;;;7.20;99.90;;;;;;5034098;28;20455;-87
2023/12/30 01:37:35;;;;;;;5.70;2.77;;;7.20;99.90;;;;;;5035069;28;20455;-87
2023/12/30 01:40:04;;;;;;;5.20;2.87;;;7.20;99.90;;;;;;5034446;28;20455;-87
2023/12/30 01:42:34;;;;;;;6.77;2.77;;;7.20;99.90;;;;;;5033042;28;20506;-87
2023/12/30 01:45:02;;;;;;;6.80;3.10;;;7.20;99.90;;;;;;5033051;28;20550;-87
2023/12/30 01:47:31;;;;;;;4.73;2.47;;;7.20;99.90;;;;;;5033996;28;20479;-88
2023/12/30 01:49:59;;;;;;;5.07;2.73;;;7.20;99.90;;;;;;5033213;28;20448;-88
2023/12/30 01:52:28;;;;;;;8.10;3.10;;;7.20;99.90;;;;;;5033591;28;20467;-88
2023/12/30 01:54:56;;;;;;;6.90;3.17;;;7.20;99.90;;;;;;5033652;28;20523;-88
2023/12/30 01:57:25;;;;;;;5.90;3.23;;;7.10;99.90;;;;;;5020501;28;20470;-87
2023/12/30 01:59:55;;;;;;;4.30;3.10;;;7.10;99.90;;;;;;5015211;28;20448;-87
2023/12/30 02:02:23;;;;;;;8.67;3.37;;;7.10;99.90;;;;;;5015066;28;20466;-87
2023/12/30 02:04:52;;;;;;;5.83;3.00;;;7.10;99.90;;;;;;5015001;28;20822;-87
2023/12/30 02:07:20;;;;;;;5.77;3.13;;;7.10;99.90;;;;;;5014598;28;20457;-87
2023/12/30 02:09:49;;;;;;;8.00;3.13;;;7.10;99.90;;;;;;5014789;28;20490;-87
2023/12/30 02:12:17;;;;;;;5.70;2.63;;;7.10;99.90;;;;;;5014118;28;20466;-87
2023/12/30 02:14:46;;;;;;;6.23;3.37;;;7.10;99.90;;;;;;5014353;28;20455;-87
2023/12/30 02:17:15;;;;;;;4.33;2.60;;;7.10;99.90;;;;;;5014297;28;20443;-88
2023/12/30 02:19:44;;;;;;;6.20;2.67;;;7.10;99.90;;;;;;5013909;28;20496;-87
2023/12/30 02:22:14;;;;;;;6.67;2.97;;;7.10;99.90;;;;;;5015236;28;20447;-87
2023/12/30 02:24:44;;;;;;;7.47;3.20;;;7.10;99.90;;;;;;5014636;28;20526;-87
2023/12/30 02:27:12;;;;;;;5.17;2.43;;;7.10;99.90;;;;;;5014135;28;20457;-87
2023/12/30 02:29:44;;;;;;;6.73;2.17;;;7.10;99.90;;;;;;5014247;28;20454;-87
2023/12/30 02:32:13;;;;;;;5.53;2.60;;;7.10;99.90;;;;;;5014348;28;20478;-87
2023/12/30 02:34:41;;;;;;;5.30;2.93;;;7.00;99.90;;;;;;5014080;28;20529;-87
2023/12/30 02:37:10;;;;;;;8.57;2.13;;;7.00;99.90;;;;;;5014336;28;20459;-87
2023/12/30 02:39:38;;;;;;;8.73;2.60;;;7.00;99.90;;;;;;5013994;28;20491;-87
2023/12/30 02:42:08;;;;;;;6.23;2.60;;;7.00;99.90;;;;;;5013758;28;20456;-87
2023/12/30 02:44:37;;;;;;;4.70;2.00;;;7.00;99.90;;;;;;5013920;28;20842;-87
2023/12/30 02:47:05;;;;;;;7.20;2.10;;;7.00;99.90;;;;;;5013933;28;20458;-87
2023/12/30 02:49:34;;;;;;;4.97;2.20;;;7.00;99.90;;;;;;5014063;28;20467;-87
2023/12/30 02:52:03;;;;;;;5.07;2.13;;;7.00;99.90;;;;;;5014127;28;20477;-87
2023/12/30 02:54:31;;;;;;;5.50;2.20;;;6.90;99.90;;;;;;5013462;28;20581;-87
2023/12/30 02:57:02;;;;;;;8.10;2.20;;;6.90;99.90;;;;;;5013961;28;20501;-87
2023/12/30 02:59:32;;;;;;;5.77;2.10;;;6.90;99.90;;;;;;5014073;28;20450;-87
2023/12/30 03:02:01;;;;;;;7.77;3.00;;;6.90;99.90;;;;;;5014024;28;20449;-87
2023/12/30 03:04:30;;;;;;;13.47;2.27;;;6.90;99.90;;;;;;5014403;28;20456;-87
2023/12/30 03:06:58;;;;;;;5.90;1.90;;;6.90;99.90;;;;;;5013447;28;20532;-87
2023/12/30 03:09:27;;;;;;;6.53;2.40;;;6.90;99.90;;;;;;5013746;28;20458;-87
2023/12/30 03:11:55;;;;;;;9.23;2.00;;;6.80;99.90;;;;;;5017569;28;20452;-87
2023/12/30 03:14:23;;;;;;;5.10;2.50;;;6.80;99.90;;;;;;5017527;28;20472;-87
2023/12/30 03:16:53;;;;;;;9.63;2.33;;;6.80;99.90;;;;;;5017549;28;20458;-87
2023/12/30 03:19:21;;;;;;;9.93;2.70;;;6.80;99.90;;;;;;5017082;28;20462;-87
2023/12/30 03:21:49;;;;;;;7.63;2.63;;;6.80;99.90;;;;;;5017396;28;20986;-87
2023/12/30 03:24:18;;;;;;;5.83;2.13;;;6.80;99.90;;;;;;5016816;28;20479;-87
2023/12/30 03:26:46;;;;;;;6.07;1.80;;;6.80;99.90;;;;;;5017046;28;20456;-87
2023/12/30 03:29:14;;;;;;;4.60;2.20;;;6.80;99.90;;;;;;5016863;28;20491;-87
2023/12/30 03:31:43;;;;;;;5.30;1.93;;;6.80;99.90;;;;;;5016816;28;20455;-87
2023/12/30 03:34:12;;;;;;;6.37;2.50;;;6.80;99.90;;;;;;5016885;28;21040;-87
2023/12/30 03:36:41;;;;;;;6.50;2.27;;;6.80;99.90;;;;;;5016786;28;21006;-87
2023/12/30 03:39:10;;;;;;;5.50;2.67;;;6.80;99.90;;;;;;5016704;28;20468;-87
2023/12/30 03:41:38;;;;;;;8.27;2.60;;;6.80;99.90;;;;;;5016714;28;20489;-87
2023/12/30 03:44:06;;;;;;;6.00;2.17;;;6.80;99.90;;;;;;5016625;28;20496;-87
2023/12/30 03:46:35;;;;;;;6.77;1.77;;;6.80;99.90;;;;;;5016522;28;20487;-87
2023/12/30 03:49:03;;;;;;;6.00;2.20;;;6.80;99.90;;;;;;5016320;28;20552;-87
2023/12/30 03:51:33;;;;;;;4.57;1.77;;;6.80;99.90;;;;;;5016597;28;20548;-87
2023/12/30 03:54:01;;;;;;;3.63;1.70;;;6.80;99.90;;;;;;5016253;28;20521;-87
2023/12/30 03:56:30;;;;;;;8.80;2.00;;;6.80;99.90;;;;;;5016492;28;20447;-87
2023/12/30 03:58:59;;;;;;;6.17;1.97;;;6.80;99.90;;;;;;5016296;28;20455;-87
2023/12/30 04:01:28;;;;;;;6.37;2.27;;;6.80;99.90;;;;;;5016096;28;20453;-87
2023/12/30 04:03:56;;;;;;;5.30;1.87;;;6.80;99.90;;;;;;5015791;28;20597;-87
2023/12/30 04:06:24;;;;;;;4.10;1.97;;;6.80;99.90;;;;;;5015959;28;20447;-87
2023/12/30 04:08:54;;;;;;;8.07;2.53;;;6.80;99.90;;;;;;5016047;28;20466;-87
2023/12/30 04:11:23;;;;;;;6.47;2.23;;;6.80;99.90;;;;;;5015588;28;20439;-87
2023/12/30 04:13:51;;;;;;;4.87;2.10;;;6.90;99.90;;;;;;5015683;28;20474;-87
2023/12/30 04:16:19;;;;;;;4.20;1.83;;;6.90;99.90;;;;;;5015547;28;20450;-87
2023/12/30 04:18:48;;;;;;;6.87;2.30;;;6.90;99.90;;;;;;5015442;28;20457;-87
2023/12/30 04:21:16;;;;;;;7.27;2.57;;;6.90;99.90;;;;;;5015746;28;20515;-87
2023/12/30 04:23:45;;;;;;;6.90;2.03;;;6.90;99.90;;;;;;5015250;28;20469;-87
2023/12/30 04:26:14;;;;;;;5.90;2.20;;;6.90;99.90;;;;;;5017841;28;20507;-88
2023/12/30 04:28:44;;;;;;;5.20;2.30;;;6.90;99.90;;;;;;5019661;28;20459;-87
2023/12/30 04:31:13;;;;;;;8.83;2.60;;;6.90;99.90;;;;;;5016840;28;20504;-87
2023/12/30 04:33:42;;;;;;;5.33;2.97;;;6.90;99.90;;;;;;5015932;28;20507;-87
2023/12/30 04:36:10;;;;;;;6.23;2.13;;;7.00;99.90;;;;;;5016214;28;20451;-87
2023/12/30 04:38:41;;;;;;;5.63;2.37;;;7.00;99.90;;;;;;5016118;28;20438;-87
2023/12/30 04:41:14;;;;;;;5.90;1.87;;;7.00;99.90;;;;;;5015999;28;20807;-87
2023/12/30 04:43:43;;;;;;;6.40;2.27;;;7.00;99.90;;;;;;5016031;28;20479;-87
2023/12/30 04:46:12;;;;;;;4.67;2.20;;;7.00;99.90;;;;;;5017211;28;20432;-87
2023/12/30 04:48:41;;;;;;;6.23;1.97;;;7.00;99.90;;;;;;5015832;28;20459;-87
2023/12/30 04:51:09;;;;;;;7.40;2.97;;;7.00;99.90;;;;;;5015759;28;20461;-87
2023/12/30 04:53:37;;;;;;;5.53;2.13;;;6.90;99.90;;;;;;5014795;28;20488;-87
2023/12/30 04:56:08;;;;;;;7.93;2.53;;;7.00;99.90;;;;;;5014872;28;20573;-88
2023/12/30 04:58:38;;;;;;;4.60;2.17;;;7.00;99.90;;;;;;5014997;28;20839;-87
2023/12/30 05:01:08;;;;;;;8.53;2.30;;;7.00;99.90;;;;;;5014889;28;20816;-87
2023/12/30 05:03:37;;;;;;;7.80;2.33;;;7.00;99.90;;;;;;5014585;28;20807;-88
2023/12/30 05:06:06;;;;;;;4.80;1.67;;;7.00;99.90;;;;;;5014943;28;20914;-88
2023/12/30 05:08:35;;;;;;;5.00;1.97;;;7.00;99.90;;;;;;5014542;28;20457;-87
2023/12/30 05:11:07;;;;;;;7.63;2.47;;;7.00;99.90;;;;;;5014312;28;20448;-87
2023/12/30 05:13:37;;;;;;;7.60;2.00;;;7.00;99.90;;;;;;5014253;28;20812;-87
2023/12/30 05:16:06;;;;;;;5.63;2.20;;;7.00;99.90;;;;;;5014167;28;20506;-87
2023/12/30 05:18:35;;;;;;;7.63;2.40;;;7.00;99.90;;;;;;5014290;28;20454;-87
2023/12/30 05:21:04;;;;;;;8.53;2.47;;;7.00;99.90;;;;;;5014303;28;20458;-87
2023/12/30 05:23:33;;;;;;;8.20;2.43;;;7.00;99.90;;;;;;5013874;28;20481;-87
2023/12/30 05:26:02;;;;;;;9.17;2.90;;;7.00;99.90;;;;;;5013979;28;20455;-86
2023/12/30 05:28:31;;;;;;;7.57;2.80;;;7.00;99.90;;;;;;5013774;28;20489;-88
2023/12/30 05:31:00;;;;;;;7.60;2.60;;;7.00;99.90;;;;;;5013809;28;20482;-87
2023/12/30 05:33:29;;;;;;;6.43;2.10;;;7.00;99.90;;;;;;5013074;28;20477;-87
2023/12/30 05:35:58;;;;;;;6.97;2.33;;;7.00;99.90;;;;;;5013750;28;20569;-87
2023/12/30 05:38:26;;;;;;;7.93;2.33;;;7.00;99.90;;;;;;5015171;28;20505;-87
2023/12/30 05:40:55;;;;;;;7.17;2.00;;;6.90;99.90;;;;;;5013933;28;20829;-87
2023/12/30 05:43:23;;;;;;;6.10;2.30;;;6.90;99.90;;;;;;5013644;28;20835;-87
2023/12/30 05:45:54;;;;;;;7.70;2.37;;;6.90;99.90;;;;;;5013752;28;20450;-87
2023/12/30 05:48:24;;;;;;;5.57;2.53;;;6.90;99.90;;;;;;5013757;28;20452;-87
2023/12/30 05:50:52;;;;;;;11.50;3.00;;;6.90;99.90;;;;;;5015010;28;20442;-87
2023/12/30 05:53:20;;;;;;;8.00;2.30;;;6.90;99.90;;;;;;5013520;28;20477;-86
2023/12/30 05:55:51;;;;;;;7.30;2.00;;;6.80;99.90;;;;;;5013444;28;20475;-87
2023/12/30 05:58:19;;;;;;;7.50;2.40;;;6.80;99.90;;;;;;5013817;28;20977;-87
2023/12/30 06:00:47;;;;;;;7.23;2.10;;;6.80;99.90;;;;;;5013768;28;20600;-87
2023/12/30 06:03:15;;;;;;;5.87;2.03;;;6.80;99.90;;;;;;5013787;28;20484;-86
2023/12/30 06:05:45;;;;;;;10.90;2.40;;;6.80;99.90;;;;;;5013963;28;20562;-86
2023/12/30 06:08:14;;;;;;;4.33;1.70;;;6.80;99.90;;;;;;5013745;28;20462;-86
2023/12/30 06:10:42;;;;;;;7.60;2.60;;;6.80;99.90;;;;;;5013610;28;20443;-87
2023/12/30 06:13:11;;;;;;;7.70;2.87;;;6.80;99.90;;;;;;5013351;28;20480;-87
2023/12/30 06:15:39;;;;;;;6.73;2.10;;;6.80;99.90;;;;;;5013535;28;20478;-87
2023/12/30 06:18:07;;;;;;;5.13;2.23;;;6.80;99.90;;;;;;5013267;28;20515;-87
2023/12/30 06:20:36;;;;;;;4.63;2.10;;;6.80;99.90;;;;;;5013096;28;20498;-87
2023/12/30 06:23:06;;;;;;;8.07;2.23;;;6.80;99.90;;;;;;5012943;28;21135;-87
2023/12/30 06:25:34;;;;;;;8.63;2.60;;;6.70;99.90;;;;;;5013255;28;20454;-87
2023/12/30 06:28:03;;;;;;;8.10;2.30;;;6.70;99.90;;;;;;5013331;28;20545;-87
2023/12/30 06:30:31;;;;;;;8.70;2.70;;;6.70;99.90;;;;;;5013755;28;20959;-87
2023/12/30 06:33:06;;;;;;;6.30;2.53;;;6.70;99.90;;;;;;5013125;28;20474;-87
2023/12/30 06:35:35;;;;;;;7.73;2.37;;;6.70;99.90;;;;;;5014217;28;20462;-87
2023/12/30 06:38:06;;;;;;;7.57;2.07;;;6.70;99.90;;;;;;5013375;28;20462;-86
2023/12/30 06:40:34;;;;;;;9.97;3.20;;;6.60;99.90;;;;;;5014324;28;20450;-87
2023/12/30 06:43:02;;;;;;;7.03;2.30;;;6.70;99.90;;;;;;5013432;28;20472;-87
2023/12/30 06:45:31;;;;;;;9.60;2.50;;;6.60;99.90;;;;;;5013174;28;20442;-87
2023/12/30 06:47:59;;;;;;;8.03;2.87;;;6.60;99.90;;;;;;5013299;28;20459;-87
2023/12/30 06:50:28;;;;;;;5.93;2.43;;;6.60;99.90;;;;;;5013894;28;20490;-87
2023/12/30 06:52:56;;;;;;;9.10;2.80;;;6.60;99.90;;;;;;5012771;28;20465;-87
2023/12/30 06:55:26;;;;;;;7.57;2.40;;;6.60;99.90;;;;;;5012715;28;20474;-86
2023/12/30 06:58:05;;;;;;;8.10;1.90;;;6.60;99.90;;;;;;5012938;28;20444;-87
2023/12/30 07:00:33;;;;;;;6.97;2.40;;;6.60;99.90;;;;;;5013041;28;20487;-87
2023/12/30 07:03:02;;;;;;;6.40;2.60;;;6.60;99.90;;;;;;5012887;28;21008;-87
2023/12/30 07:05:35;;;;;;;8.63;2.77;;;6.50;99.90;;;;;;5012618;28;20504;-87
2023/12/30 07:08:05;;;;;;;9.30;2.17;;;6.50;99.90;;;;;;5012776;28;20521;-87
2023/12/30 07:10:35;;;;;;;6.47;2.03;;;6.50;99.90;;;;;;5012613;28;20465;-87
2023/12/30 07:13:04;;;;;;;8.77;2.33;;;6.50;99.90;;;;;;5012506;28;20477;-87
2023/12/30 07:15:33;;;;;;;5.67;2.93;;;6.50;99.90;;;;;;5013080;28;20477;-87
2023/12/30 07:18:03;;;;;;;10.73;2.70;;;6.50;99.90;;;;;;5012618;28;20449;-87
2023/12/30 07:20:31;;;;;;;10.87;2.80;;;6.50;99.90;;;;;;5012900;28;20817;-87
2023/12/30 07:23:01;;;;;;;7.93;2.50;;;6.40;99.90;;;;;;5012696;28;20475;-87
2023/12/30 07:25:30;;;;;;;9.40;2.50;;;6.50;99.90;;;;;;5013150;28;20446;-87
2023/12/30 07:28:00;;;;;;;6.90;2.40;;;6.40;99.90;;;;;;5012822;28;20454;-87
2023/12/30 07:30:29;;;;;;;8.00;2.50;;;6.40;99.90;;;;;;5012644;28;20540;-87
2023/12/30 07:32:58;;;;;;;4.17;1.93;;;6.40;99.90;;;;;;5012479;28;20469;-86
2023/12/30 07:35:27;;;;;;;6.10;2.03;;;6.40;99.90;;;;;;5012499;28;20458;-87
2023/12/30 07:37:55;;;;;;;7.57;3.00;;;6.40;99.90;;;;;;5012535;28;20914;-87
2023/12/30 07:40:25;;;;;;;7.20;2.43;;;6.40;99.90;;;;;;5012477;28;20484;-87
2023/12/30 07:42:54;;;;;;;11.60;2.67;;;6.40;99.90;;;;;;5012593;28;20562;-87
2023/12/30 07:45:23;;;;;;;10.97;2.70;;;6.40;99.90;;;;;;5012262;28;20982;-87
2023/12/30 07:47:52;;;;;;;18.83;3.27;;;6.40;99.90;;;;;;5012870;28;20511;-87
2023/12/30 07:50:21;;;;;;;11.27;2.70;;;6.50;99.90;;;;;;5013706;28;20457;-87
2023/12/30 07:52:50;;;;;;;8.93;2.63;;;6.50;99.90;;;;;;5013889;28;20465;-87
2023/12/30 07:55:18;;;;;;;5.57;2.20;;;6.50;99.90;;;;;;5012546;28;20536;-87
2023/12/30 07:57:46;;;;;;;10.13;2.43;;;6.50;99.90;;;;;;5015551;28;20991;-87
2023/12/30 08:00:15;;;;;;;5.83;2.30;;;6.50;99.90;;;;;;5015860;28;20505;-87
2023/12/30 08:02:46;;;;;;;8.23;3.17;;;6.50;99.90;;;;;;5016067;28;20481;-87
2023/12/30 08:05:14;;;;;;;9.43;2.83;;;6.50;99.90;;;;;;5015750;28;20605;-87
2023/12/30 08:07:43;;;;;;;7.33;2.77;;;6.60;99.90;;;;;;5015692;28;20948;-87
2023/12/30 08:10:13;;;;;;;8.03;2.47;;;6.60;99.90;;;;;;5015752;28;20446;-87
2023/12/30 08:12:41;;;;;;;7.10;2.50;;;6.60;99.90;;;;;;5015916;28;20568;-87
2023/12/30 08:15:10;;;;;;;9.10;2.43;;;6.60;99.90;;;;;;5015735;28;20950;-87
2023/12/30 08:17:39;;;;;;;9.73;2.87;;;6.60;99.90;;;;;;5015510;28;20499;-87
2023/12/30 08:20:11;;;;;;;9.97;2.53;;;6.60;99.90;;;;;;5017280;28;20438;-87
2023/12/30 08:22:39;;;;;;;7.33;2.33;;;6.70;99.90;;;;;;5016022;28;20449;-87
2023/12/30 08:25:08;;;;;;;8.47;3.00;;;6.70;99.90;;;;;;5015556;28;20458;-87
2023/12/30 08:27:37;;;;;;;9.53;2.83;;;6.70;99.90;;;;;;5015591;28;20475;-87
2023/12/30 08:30:06;;;;;;;8.20;2.50;;;6.70;99.90;;;;;;5015579;28;20455;-87
2023/12/30 08:32:35;;;;;;;6.60;2.90;;;6.80;99.90;;;;;;5015643;28;20509;-87
2023/12/30 08:35:07;;;;;;;7.20;2.67;;;6.80;99.90;;;;;;5015613;28;20554;-88
2023/12/30 08:37:37;;;;;;;7.93;3.27;;;6.80;99.90;;;;;;5015276;28;20471;-87
2023/12/30 08:40:10;;;;;;;6.27;2.50;;;6.80;99.90;;;;;;5015457;28;20449;-87
2023/12/30 08:42:39;;;;;;;7.50;2.90;;;6.80;99.90;;;;;;5015174;28;20907;-87
2023/12/30 08:45:09;;;;;;;8.70;2.60;;;6.90;99.90;;;;;;5015259;28;20486;-87
2023/12/30 08:47:37;;;;;;;8.60;3.13;;;6.90;99.90;;;;;;5016257;28;20460;-87
2023/12/30 08:50:06;;;;;;;4.67;2.43;;;6.90;99.90;;;;;;5015153;28;20454;-87
2023/12/30 08:52:36;;;;;;;9.30;2.40;;;6.90;99.90;;;;;;5015028;28;20868;-87
2023/12/30 08:55:10;;;;;;;9.13;2.67;;;6.90;99.90;;;;;;5015120;28;20448;-87
2023/12/30 08:57:38;;;;;;;6.83;2.57;;;7.00;99.90;;;;;;5015192;28;20474;-87
2023/12/30 09:00:09;;;;;;;7.10;2.73;;;7.00;99.90;;;;;;5015081;28;20499;-87
2023/12/30 09:02:37;;;;;;;8.57;2.60;;;7.00;99.90;;;;;;5015460;28;20543;-87
2023/12/30 09:05:07;;;;;;;8.20;2.70;;;7.00;99.90;;;;;;5014894;28;20481;-87
2023/12/30 09:07:37;;;;;;;7.17;2.70;;;7.00;99.90;;;;;;5015899;28;20440;-87
2023/12/30 09:10:07;;;;;;;11.20;3.60;;;7.10;99.90;;;;;;5015431;28;20454;-87
2023/12/30 09:12:35;;;;;;;10.70;2.73;;;7.10;99.90;;;;;;5018120;28;20810;-88
2023/12/30 09:15:05;;;;;;;8.40;3.27;;;7.10;99.90;;;;;;5017108;28;20501;-87
2023/12/30 09:17:33;;;;;;;11.20;2.80;;;7.10;99.90;;;;;;5022518;28;20542;-87
2023/12/30 09:20:03;;;;;;;8.00;2.50;;;7.10;99.90;;;;;;5028580;28;20445;-88
2023/12/30 09:22:31;;;;;;;8.00;2.90;;;7.10;99.90;;;;;;5024618;28;20458;-87
2023/12/30 09:25:01;;;;;;;7.73;2.30;;;7.10;99.90;;;;;;5023119;28;20460;-87
2023/12/30 09:27:30;;;;;;;9.57;3.60;;;7.20;99.90;;;;;;5031237;28;20430;-87
2023/12/30 09:30:00;;;;;;;11.87;3.67;;;7.20;99.90;;;;;;5033290;28;20427;-87
2023/12/30 09:32:31;;;;;;;9.07;2.67;;;7.20;99.90;;;;;;5016350;28;20447;-87
2023/12/30 09:35:01;;;;;;;8.57;3.00;;;7.20;99.90;;;;;;5015934;28;20527;-87
2023/12/30 09:37:30;;;;;;;6.57;2.40;;;7.20;99.90;;;;;;5015662;28;20538;-87
2023/12/30 09:39:59;;;;;;;7.93;2.90;;;7.20;99.90;;;;;;5015558;28;20458;-87
2023/12/30 09:42:29;;;;;;;6.50;2.63;;;7.30;99.90;;;;;;5015487;28;20464;-87
2023/12/30 09:45:00;;;;;;;9.17;3.00;;;7.30;99.90;;;;;;5020022;28;20455;-87
2023/12/30 09:47:30;;;;;;;9.90;3.57;;;7.30;99.90;;;;;;5018785;28;20487;-87
2023/12/30 09:49:59;;;;;;;6.90;2.60;;;7.30;99.90;;;;;;5017739;28;20443;-87
2023/12/30 09:52:28;;;;;;;7.17;2.40;;;7.40;99.90;;;;;;5016470;28;20519;-87
2023/12/30 09:54:56;;;;;;;8.50;3.40;;;7.40;99.90;;;;;;5018805;28;20486;-87
2023/12/30 09:57:25;;;;;;;8.93;3.20;;;7.40;99.90;;;;;;5020620;28;20471;-87
2023/12/30 09:59:56;;;;;;;8.97;3.20;;;7.40;99.90;;;;;;5021641;28;20490;-87
2023/12/30 10:02:24;;;;;;;6.43;3.00;;;7.40;99.90;;;;;;5024230;28;20452;-87
2023/12/30 10:04:54;;;;;;;7.83;2.83;;;7.50;99.90;;;;;;5025375;28;20450;-87
2023/12/30 10:07:22;;;;;;;11.40;3.30;;;7.50;99.90;;;;;;5026913;28;20455;-87
2023/12/30 10:09:51;;;;;;;9.07;2.67;;;7.50;99.90;;;;;;5030727;28;20482;-87
2023/12/30 10:12:23;;;;;;;9.03;3.50;;;7.50;99.90;;;;;;5027743;28;20455;-87
2023/12/30 10:14:51;;;;;;;5.23;2.90;;;7.50;99.90;;;;;;5027533;28;20477;-87
2023/12/30 10:17:21;;;;;;;9.97;3.30;;;7.60;99.90;;;;;;5024794;28;20472;-87
2023/12/30 10:19:49;;;;;;;10.23;3.10;;;7.60;99.90;;;;;;5021753;28;20460;-87
2023/12/30 10:22:18;;;;;;;8.57;3.10;;;7.60;99.90;;;;;;5025293;28;20490;-87
2023/12/30 10:24:46;;;;;;;8.80;3.17;;;7.60;99.90;;;;;;5022454;28;20986;-87
2023/12/30 10:27:16;;;;;;;9.20;3.10;;;7.60;99.90;;;;;;5023975;28;20790;-87
2023/12/30 10:29:44;;;;;;;12.90;3.83;;;7.60;99.90;;;;;;5025230;28;20448;-87
2023/12/30 10:32:23;;;;;;;11.40;3.27;;;7.60;99.90;;;;;;5024361;28;20502;-87
2023/12/30 10:34:51;;;;;;;13.53;3.50;;;7.60;99.90;;;;;;5024201;28;20428;-86
2023/12/30 10:37:23;;;;;;;9.50;3.23;;;7.70;99.90;;;;;;5015922;28;20499;-87
2023/12/30 10:39:55;;;;;;;9.83;3.87;;;7.70;99.90;;;;;;5015540;28;20451;-87
2023/12/30 10:42:24;;;;;;;10.23;3.80;;;7.70;99.90;;;;;;5015980;28;20448;-87
2023/12/30 10:44:52;;;;;;;9.20;3.00;;;7.80;99.90;;;;;;5018635;28;20448;-87
2023/12/30 10:47:23;;;;;;;6.40;2.90;;;7.80;99.90;;;;;;5016672;28;20447;-87
2023/12/30 10:49:53;;;;;;;6.33;2.80;;;7.80;99.90;;;;;;5015723;28;20841;-87
2023/12/30 10:52:26;;;;;;;9.80;3.00;;;7.80;99.90;;;;;;5014919;28;20456;-87
2023/12/30 10:55:04;;;;;;;10.13;3.43;;;7.90;99.90;;;;;;5014462;28;20469;-86
2023/12/30 10:57:37;;;;;;;7.73;3.20;;;7.90;99.90;;;;;;5013975;28;20526;-87
2023/12/30 11:00:09;;;;;;;9.18;3.30;;;7.90;99.90;;;;;;5014016;28;20737;-87
2023/12/30 11:02:40;;;;;;;8.83;3.00;;;7.90;99.90;;;;;;5014498;28;20173;-86
2023/12/30 11:05:12;;;;;;;12.23;3.60;;;7.90;99.90;;;;;;5013442;28;20491;-86
2023/12/30 11:07:41;;;;;;;9.03;3.13;;;7.90;99.90;;;;;;5013247;28;20464;-86
2023/12/30 11:10:17;;;;;;;10.63;3.40;;;7.90;99.90;;;;;;5012994;28;20455;-87
2023/12/30 11:12:46;;;;;;;9.30;3.60;;;8.00;99.90;;;;;;5014946;28;20562;-87
2023/12/30 11:15:25;;;;;;;7.63;3.70;;;8.00;99.90;;;;;;5015816;28;20558;-87
2023/12/30 11:17:56;;;;;;;6.70;2.80;;;7.90;99.90;;;;;;5015572;28;20463;-87
2023/12/30 11:20:30;;;;;;;12.70;4.97;;;8.00;99.90;;;;;;5014967;28;20981;-87
2023/12/30 11:23:00;;;;;;;10.60;4.80;;;8.00;99.90;;;;;;5015253;28;20579;-87
2023/12/30 11:25:39;;;;;;;14.30;4.70;;;8.00;99.90;;;;;;5015384;28;20956;-87
2023/12/30 11:28:15;;;;;;;6.77;3.30;;;8.00;99.90;;;;;;5014685;28;20439;-87
2023/12/30 11:30:45;;;;;;;11.20;3.53;;;8.00;99.90;;;;;;5015052;28;20455;-87
2023/12/30 11:33:15;;;;;;;8.40;3.50;;;8.00;99.90;;;;;;5019191;28;21091;-86
2023/12/30 11:35:44;;;;;;;10.17;4.10;;;8.00;99.90;;;;;;5019847;28;20450;-87
2023/12/30 11:38:13;;;;;;;8.07;4.03;;;8.00;99.90;;;;;;5020830;28;20478;-87
2023/12/30 11:40:46;;;;;;;10.80;4.10;;;8.00;99.90;;;;;;5021369;28;20454;-87
2023/12/30 11:43:15;;;;;;;6.67;3.73;;;8.00;99.90;;;;;;5021234;28;20479;-87
2023/12/30 11:45:43;;;;;;;11.90;3.77;;;8.10;99.90;;;;;;5020378;28;20814;-87
2023/12/30 11:48:12;;;;;;;9.17;5.10;;;8.10;99.90;;;;;;5020766;28;20472;-87
2023/12/30 11:50:42;;;;;;;9.30;4.00;;;8.10;99.90;;;;;;5020216;28;20452;-87
2023/12/30 11:53:10;;;;;;;12.37;5.13;;;8.10;99.90;;;;;;5019952;28;20530;-87
2023/12/30 11:55:38;;;;;;;9.10;4.13;;;8.10;99.90;;;;;;5020694;28;20498;-89
2023/12/30 11:58:07;;;;;;;5.47;3.63;;;8.10;99.90;;;;;;5020132;28;20984;-89
2023/12/30 12:00:36;;;;;;;8.40;4.00;;;8.10;99.90;;;;;;5019318;28;20463;-87
2023/12/30 12:03:05;;;;;;;11.90;4.90;;;8.20;99.90;;;;;;5018621;28;20467;-86
2023/12/30 12:05:34;;;;;;;11.70;4.97;;;8.20;99.90;;;;;;5019368;28;20456;-87
2023/12/30 12:08:05;;;;;;;7.97;4.30;;;8.20;99.90;;;;;;5018631;28;20460;-86
2023/12/30 12:10:34;;;;;;;5.93;3.17;;;8.20;99.90;;;;;;5019659;28;20448;-86
2023/12/30 12:13:06;;;;;;;8.17;3.30;;;8.20;99.90;;;;;;5019212;28;20985;-86
2023/12/30 12:15:34;;;;;;;7.43;3.60;;;8.20;99.90;;;;;;5019987;28;20444;-87
2023/12/30 12:18:03;;;;;;;11.60;3.83;;;8.20;99.90;;;;;;5021125;28;21078;-86
2023/12/30 12:20:38;;;;;;;8.53;3.73;;;8.30;99.90;;;;;;5021463;28;20451;-86
2023/12/30 12:23:08;;;;;;;8.50;3.90;;;8.30;99.90;;;;;;5022158;28;20459;-86
2023/12/30 12:25:37;;;;;;;8.77;3.43;;;8.30;99.90;;;;;;5018205;28;20914;-86
2023/12/30 12:28:09;;;;;;;6.70;3.63;;;8.30;99.90;;;;;;5021008;28;20455;-86
2023/12/30 12:30:38;;;;;;;7.40;3.23;;;8.30;99.90;;;;;;5025140;28;20444;-86
2023/12/30 12:33:08;;;;;;;8.60;3.37;;;8.40;99.90;;;;;;5027869;28;20483;-87
2023/12/30 12:35:37;;;;;;;6.70;3.37;;;8.40;99.90;;;;;;5029224;28;20459;-87
2023/12/30 12:38:05;;;;;;;9.57;3.37;;;8.40;99.90;;;;;;5026416;28;20448;-87
2023/12/30 12:40:35;;;;;;;10.70;3.90;;;8.40;99.90;;;;;;5029136;28;20957;-89
2023/12/30 12:43:04;;;;;;;7.37;2.70;;;8.40;99.90;;;;;;5019380;28;20475;-87
2023/12/30 12:45:33;;;;;;;10.73;3.63;;;8.40;99.90;;;;;;5018099;28;20451;-87
2023/12/30 12:48:01;;;;;;;8.63;3.53;;;8.40;99.90;;;;;;5018223;28;20452;-87
2023/12/30 12:50:33;;;;;;;6.70;2.90;;;8.40;99.90;;;;;;5020837;28;20447;-87
2023/12/30 12:53:01;;;;;;;9.07;4.00;;;8.40;99.90;;;;;;5018109;28;20472;-86
2023/12/30 12:55:30;;;;;;;6.63;3.40;;;8.40;99.90;;;;;;5018173;28;20459;-87
2023/12/30 12:58:00;;;;;;;8.50;2.90;;;8.50;99.90;;;;;;5020051;28;20197;-86
2023/12/30 13:00:28;;;;;;;6.63;3.20;;;8.50;99.90;;;;;;5018093;28;20566;-86
2023/12/30 13:02:56;;;;;;;8.13;3.07;;;8.50;99.90;;;;;;5017003;28;20471;-87
2023/12/30 13:05:28;;;;;;;9.87;4.10;;;8.50;99.90;;;;;;5017278;28;20792;-87